Main page
METAR-TAF:

METAR-TAF

Airports :

Nancy – Ochey Air Base

Nancy, France

latitude: 48-35N, longitude: 005-58E, elevation: 336 m

Current weather observation

The report was made 17 minutes ago, at 02:00 UTC
Wind 3 kt from the North
Temperature 15°C
Humidity 82%
Pressure 1015 hPa
Visibility 10 km or more
no clouds below 1500 m and no cumulonimbus

METAR: LFSO 250200Z AUTO 35003KT CAVOK 15/12 Q1015

Time: 04:17 (02:17 UTC)

Forecast

The report was made 12 hours and 17 minutes ago, at 14:00 UTC
Forecast valid from 24 at 15 UTC to 25 at 15 UTC
Wind 10 kt from the Northeast
Visibility 10 km or more
Scattered clouds at a height of 4500 ft

TAF: LFSO 241400Z 2415/2515 05010KT 9999 SCT045

Weather observations and forecasts of more than 4000 airports (METAR and TAF reports).

The available stations are represented by yellow and red dots on the map.

Hover mouse over dot to see the name of the station.

Then click to see weather observations and forecasts.

To change the map : click on the green buttons with a black cross to zoom in, on the green button with a dash to zoom out, or on the green arrows for adjacent maps.


METAR-TAF: